createdAt,value
2018-01-10T00:01:17.444Z,14.45
2018-01-10T00:03:44.750Z,12.60
2018-01-10T00:06:10.959Z,14.18
2018-01-10T00:08:37.514Z,13.68
2018-01-10T00:11:04.546Z,14.13
2018-01-10T00:13:30.738Z,13.75
2018-01-10T00:15:57.165Z,13.38
2018-01-10T00:18:24.091Z,15.77
2018-01-10T00:20:51.067Z,15.70
2018-01-10T00:23:18.290Z,17.40
2018-01-10T00:25:45.314Z,16.15
2018-01-10T00:28:11.506Z,15.23
2018-01-10T00:30:37.758Z,15.55
2018-01-10T00:33:04.487Z,16.58
2018-01-10T00:35:30.686Z,17.25
2018-01-10T00:37:57.072Z,15.05
2018-01-10T00:40:24.081Z,13.25
2018-01-10T00:42:51.296Z,12.70
2018-01-10T00:45:18.898Z,13.23
2018-01-10T00:47:45.119Z,14.13
2018-01-10T00:50:12.126Z,15.82
2018-01-10T00:52:39.474Z,14.65
2018-01-10T00:55:07.093Z,14.95
2018-01-10T00:57:34.301Z,14.45
2018-01-10T01:00:01.973Z,13.18
2018-01-10T01:02:28.482Z,12.65
2018-01-10T01:04:55.575Z,13.23
2018-01-10T01:07:21.931Z,11.55
2018-01-10T01:09:48.541Z,13.50
2018-01-10T01:12:16.582Z,10.57
2018-01-10T01:14:42.986Z,12.32
2018-01-10T01:17:09.934Z,13.68
2018-01-10T01:19:36.179Z,13.30
2018-01-10T01:22:03.129Z,12.05
2018-01-10T01:24:30.098Z,11.65
2018-01-10T01:26:56.704Z,12.63
2018-01-10T01:29:23.858Z,11.75
2018-01-10T01:31:51.240Z,10.48
2018-01-10T01:34:18.284Z,12.30
2018-01-10T01:36:44.930Z,12.40
2018-01-10T01:39:12.929Z,10.30
2018-01-10T01:41:39.142Z,11.77
2018-01-10T01:44:05.393Z,11.10
2018-01-10T01:46:32.298Z,10.95
2018-01-10T01:48:59.087Z,12.20
2018-01-10T01:51:25.353Z,11.55
2018-01-10T01:53:52.527Z,12.02
2018-01-10T01:56:18.942Z,11.32
2018-01-10T01:58:45.234Z,12.23
2018-01-10T02:01:12.852Z,11.82
2018-01-10T02:03:39.871Z,10.45
2018-01-10T02:06:06.082Z,10.13
2018-01-10T02:08:33.081Z,12.25
2018-01-10T02:11:00.318Z,11.52
2018-01-10T02:13:26.567Z,11.40
2018-01-10T02:15:53.010Z,10.32
2018-01-10T02:18:20.018Z,10.15
2018-01-10T02:20:47.028Z,10.63
2018-01-10T02:23:14.132Z,9.65
2018-01-10T02:25:41.218Z,9.75
2018-01-10T02:28:09.198Z,11.15
2018-01-10T02:30:36.853Z,11.07
2018-01-10T02:33:04.450Z,9.95
2018-01-10T02:35:31.626Z,10.27
2018-01-10T02:37:58.381Z,10.93
2018-01-10T02:40:25.046Z,9.10
2018-01-10T02:42:51.864Z,9.35
2018-01-10T02:45:18.447Z,9.27
2018-01-10T02:47:45.647Z,9.25
2018-01-10T02:50:12.677Z,9.82
2018-01-10T02:52:39.097Z,9.30
2018-01-10T02:55:07.286Z,9.95
2018-01-10T02:57:34.171Z,8.85
2018-01-10T03:00:01.183Z,8.50
2018-01-10T03:02:27.435Z,7.78
2018-01-10T03:04:54.436Z,9.48
2018-01-10T03:07:20.651Z,8.95
2018-01-10T03:09:46.918Z,8.60
2018-01-10T03:12:13.583Z,8.43
2018-01-10T03:14:40.067Z,6.82
2018-01-10T03:17:06.504Z,8.38
2018-01-10T03:19:33.510Z,8.70
2018-01-10T03:22:00.442Z,8.40
2018-01-10T03:24:27.395Z,10.05
2018-01-10T03:26:54.597Z,9.50
2018-01-10T03:29:21.837Z,9.25
2018-01-10T03:31:48.469Z,9.88
2018-01-10T03:34:15.598Z,9.60
2018-01-10T03:36:41.835Z,8.70
2018-01-10T03:39:09.132Z,8.00
2018-01-10T03:41:35.423Z,8.68
2018-01-10T03:44:02.275Z,9.50
2018-01-10T03:46:28.752Z,7.07
2018-01-10T03:48:55.714Z,8.05
2018-01-10T03:51:21.911Z,8.27
2018-01-10T03:53:48.796Z,7.28
2018-01-10T03:56:15.607Z,8.80
2018-01-10T03:58:42.571Z,9.32
2018-01-10T04:01:09.946Z,8.82
2018-01-10T04:03:36.920Z,10.10
2018-01-10T04:06:03.962Z,11.63
2018-01-10T04:08:30.249Z,8.90
2018-01-10T04:10:56.434Z,12.00
2018-01-10T04:13:23.650Z,11.77
2018-01-10T04:15:51.115Z,10.48
2018-01-10T04:18:19.583Z,10.13
2018-01-10T04:20:46.607Z,9.10
2018-01-10T04:23:13.739Z,9.00
2018-01-10T04:25:41.442Z,8.77
2018-01-10T04:28:09.023Z,7.97
2018-01-10T04:43:36.088Z,7.87
2018-01-10T04:46:03.054Z,8.55
2018-01-10T04:48:29.282Z,9.02
2018-01-10T04:50:55.503Z,9.30
2018-01-10T04:53:22.834Z,11.68
2018-01-10T04:55:49.992Z,8.60
2018-01-10T04:58:17.545Z,9.05
2018-01-10T05:00:44.312Z,10.98
2018-01-10T05:03:10.839Z,7.20
2018-01-10T05:05:37.771Z,8.45
2018-01-10T05:08:05.315Z,9.60
2018-01-10T05:10:32.561Z,10.25
2018-01-10T05:12:58.783Z,9.73
2018-01-10T05:15:25.114Z,10.60
2018-01-10T05:17:51.857Z,9.30
2018-01-10T05:20:18.092Z,12.23
2018-01-10T05:22:44.626Z,12.10
2018-01-10T05:25:12.382Z,11.45
2018-01-10T05:27:38.686Z,10.63
2018-01-10T05:30:04.961Z,9.50
2018-01-10T05:32:32.458Z,10.45
2018-01-10T05:34:59.226Z,10.05
2018-01-10T05:37:25.944Z,11.07
2018-01-10T05:39:52.794Z,14.40
2018-01-10T05:42:20.481Z,16.98
2018-01-10T05:44:46.956Z,18.23
2018-01-10T05:47:14.598Z,15.70
2018-01-10T05:49:42.178Z,17.37
2018-01-10T05:52:08.443Z,18.65
2018-01-10T05:54:34.714Z,16.60
2018-01-10T05:57:02.239Z,17.33
2018-01-10T05:59:29.553Z,18.58
2018-01-10T06:01:56.328Z,18.45
2018-01-10T06:04:23.331Z,19.65
2018-01-10T06:06:50.551Z,19.08
2018-01-10T06:09:17.921Z,17.75
2018-01-10T06:11:46.051Z,15.35
2018-01-10T06:14:13.138Z,20.67
2018-01-10T06:16:40.321Z,18.20
2018-01-10T06:19:07.805Z,12.70
2018-01-10T06:21:35.103Z,13.45
2018-01-10T06:24:02.336Z,18.83
2018-01-10T06:26:28.820Z,16.40
2018-01-10T06:28:55.839Z,12.80
2018-01-10T06:31:23.341Z,14.80
2018-01-10T06:33:51.006Z,12.02
2018-01-10T06:36:18.027Z,16.52
2018-01-10T06:38:44.722Z,15.00
2018-01-10T06:41:11.905Z,13.30
2018-01-10T06:43:38.782Z,15.95
2018-01-10T06:46:05.150Z,19.58
2018-01-10T06:48:31.491Z,18.02
2018-01-10T06:50:58.673Z,17.92
2018-01-10T06:53:27.270Z,16.45
2018-01-10T06:55:53.660Z,23.70
2018-01-10T06:58:21.252Z,15.75
2018-01-10T07:00:47.636Z,18.77
2018-01-10T07:03:13.843Z,15.05
2018-01-10T07:05:40.467Z,15.85
2018-01-10T07:08:07.849Z,18.65
2018-01-10T07:10:35.344Z,19.02
2018-01-10T07:13:01.584Z,15.10
2018-01-10T07:15:27.835Z,19.85
2018-01-10T07:17:55.137Z,13.55
2018-01-10T07:20:21.653Z,19.80
2018-01-10T07:22:47.886Z,18.95
2018-01-10T07:25:14.360Z,15.13
2018-01-10T07:27:41.897Z,14.15
2018-01-10T07:30:09.802Z,12.32
2018-01-10T07:32:36.139Z,12.75
2018-01-10T07:35:03.384Z,14.43
2018-01-10T07:37:29.843Z,14.20
2018-01-10T07:39:56.640Z,17.75
2018-01-10T07:42:23.890Z,16.42
2018-01-10T07:44:50.389Z,21.08
2018-01-10T07:47:17.354Z,17.67
2018-01-10T07:49:44.330Z,17.05
2018-01-10T07:52:12.458Z,15.85
2018-01-10T07:54:39.431Z,14.15
2018-01-10T07:57:05.688Z,11.98
2018-01-10T07:59:32.022Z,12.80
2018-01-10T08:01:58.446Z,14.40
2018-01-10T08:04:25.012Z,12.85
2018-01-10T08:06:52.158Z,12.65
2018-01-10T08:09:18.919Z,15.50
2018-01-10T08:11:46.298Z,18.25
2018-01-10T08:14:12.566Z,14.65
2018-01-10T08:16:38.947Z,14.70
2018-01-10T08:19:08.161Z,14.77
2018-01-10T08:21:35.086Z,16.80
2018-01-10T08:24:02.539Z,18.33
2018-01-10T08:26:29.620Z,18.50
2018-01-10T08:28:55.909Z,18.12
2018-01-10T08:31:23.525Z,16.05
2018-01-10T08:33:50.711Z,16.15
2018-01-10T08:36:18.381Z,19.50
2018-01-10T08:38:46.209Z,17.90
2018-01-10T08:41:13.140Z,17.40
2018-01-10T08:43:39.372Z,18.42
2018-01-10T08:46:06.536Z,18.27
2018-01-10T08:48:33.094Z,15.38
2018-01-10T08:50:59.658Z,13.13
2018-01-10T08:53:25.888Z,13.55
2018-01-10T08:55:52.099Z,14.32
2018-01-10T08:58:19.146Z,16.08
2018-01-10T09:00:46.523Z,14.48
2018-01-10T09:03:14.703Z,15.10
2018-01-10T09:05:41.772Z,12.77
2018-01-10T09:08:08.029Z,12.35
2018-01-10T09:10:34.845Z,14.80
2018-01-10T09:13:01.398Z,11.30
2018-01-10T09:15:27.641Z,11.45
2018-01-10T09:17:54.503Z,12.02
2018-01-10T09:20:21.597Z,14.27
2018-01-10T09:22:48.024Z,12.70
2018-01-10T09:25:15.095Z,15.75
2018-01-10T09:27:41.375Z,13.43
2018-01-10T09:30:07.626Z,15.73
2018-01-10T09:32:33.996Z,17.33
2018-01-10T09:35:01.531Z,18.80
2018-01-10T09:37:29.106Z,21.50
2018-01-10T09:39:55.597Z,13.27
2018-01-10T09:42:22.920Z,15.75
2018-01-10T09:44:50.011Z,19.25
2018-01-10T09:47:16.210Z,16.67
2018-01-10T09:49:42.847Z,17.67
2018-01-10T09:52:10.477Z,14.80
2018-01-10T09:54:37.105Z,15.85
2018-01-10T09:57:04.357Z,18.35
2018-01-10T09:59:31.341Z,14.73
2018-01-10T10:01:57.686Z,13.82
2018-01-10T10:04:24.543Z,15.05
2018-01-10T10:06:51.018Z,13.48
2018-01-10T10:09:18.848Z,13.70
2018-01-10T10:11:45.109Z,15.38
2018-01-10T10:14:12.222Z,13.68
2018-01-10T10:16:38.948Z,12.48
2018-01-10T10:19:06.220Z,16.08
2018-01-10T10:21:32.747Z,14.63
2018-01-10T10:24:00.845Z,15.70
2018-01-10T10:26:27.859Z,13.60
2018-01-10T10:28:54.662Z,13.82
2018-01-10T10:31:22.267Z,11.90
2018-01-10T10:33:48.788Z,13.38
2018-01-10T10:36:15.558Z,15.23
2018-01-10T10:38:43.134Z,18.62
2018-01-10T10:41:09.473Z,12.98
2018-01-10T10:43:36.963Z,14.70
2018-01-10T10:46:03.332Z,16.48
2018-01-10T10:48:30.578Z,12.20
2018-01-10T10:50:57.819Z,16.62
2018-01-10T10:53:24.059Z,14.73
2018-01-10T10:55:50.366Z,16.55
2018-01-10T10:58:16.578Z,17.58
2018-01-10T11:00:43.407Z,14.70
2018-01-10T11:03:10.477Z,16.17
2018-01-10T11:05:37.024Z,17.87
2018-01-10T11:08:04.621Z,18.10
2018-01-10T11:10:30.986Z,15.18
2018-01-10T11:12:57.771Z,17.10
2018-01-10T11:15:24.511Z,18.40
2018-01-10T11:17:50.751Z,19.92
2018-01-10T11:20:17.033Z,17.02
2018-01-10T11:22:43.212Z,15.27
2018-01-10T11:25:09.474Z,17.25
2018-01-10T11:27:37.070Z,16.87
2018-01-10T11:30:03.573Z,16.95
2018-01-10T11:32:30.855Z,18.60
2018-01-10T11:34:57.198Z,18.02
2018-01-10T11:37:23.452Z,17.73
2018-01-10T11:39:50.179Z,14.90
2018-01-10T11:42:16.461Z,18.98
2018-01-10T11:44:42.676Z,15.00
2018-01-10T11:47:10.302Z,14.07
2018-01-10T11:49:37.973Z,17.00
2018-01-10T11:52:05.739Z,14.05
2018-01-10T11:54:32.532Z,13.23
2018-01-10T11:56:59.512Z,13.62
2018-01-10T11:59:26.294Z,15.07
2018-01-10T12:01:53.840Z,16.77
2018-01-10T12:04:21.846Z,15.27
2018-01-10T12:06:48.070Z,16.90
2018-01-10T12:09:14.767Z,14.95
2018-01-10T12:11:41.738Z,16.95
2018-01-10T12:14:09.244Z,15.30
2018-01-10T12:16:36.141Z,18.20
2018-01-10T12:19:02.598Z,15.68
2018-01-10T12:21:29.965Z,16.15
2018-01-10T12:23:56.347Z,16.15
2018-01-10T12:26:23.741Z,18.27
2018-01-10T12:28:51.794Z,17.60
2018-01-10T12:31:18.030Z,17.37
2018-01-10T12:33:44.800Z,15.43
2018-01-10T12:36:12.119Z,19.37
2018-01-10T12:38:39.359Z,15.50
2018-01-10T12:41:06.269Z,18.45
2018-01-10T12:43:33.282Z,20.40
2018-01-10T12:46:00.154Z,19.87
2018-01-10T12:48:27.128Z,15.25
2018-01-10T12:50:54.165Z,21.02
2018-01-10T12:53:21.142Z,20.17
2018-01-10T12:55:47.382Z,17.37
2018-01-10T12:58:14.298Z,19.33
2018-01-10T13:00:41.801Z,20.35
2018-01-10T13:03:08.732Z,19.52
2018-01-10T13:05:35.733Z,20.60
2018-01-10T13:24:18.240Z,18.95
2018-01-10T13:26:45.903Z,19.83
2018-01-10T13:29:12.509Z,17.85
2018-01-10T13:31:39.898Z,17.48
2018-01-10T13:34:07.608Z,19.37
2018-01-10T13:36:33.976Z,22.48
2018-01-10T13:39:00.239Z,23.00
2018-01-10T13:41:26.467Z,21.55
2018-01-10T13:43:52.982Z,20.88
2018-01-10T13:46:20.089Z,22.23
2018-01-10T13:48:46.497Z,19.30
2018-01-10T13:51:12.744Z,18.67
2018-01-10T13:53:40.061Z,18.37
2018-01-10T13:56:07.292Z,21.62
2018-01-10T13:58:35.334Z,21.08
2018-01-10T14:01:01.618Z,19.90
2018-01-10T14:03:28.044Z,17.50
2018-01-10T14:05:54.668Z,22.27
2018-01-10T14:08:22.127Z,19.35
2018-01-10T14:10:49.783Z,21.05
2018-01-10T14:13:16.905Z,18.40
2018-01-10T14:15:43.170Z,19.90
2018-01-10T14:18:10.184Z,19.08
2018-01-10T14:20:36.969Z,23.98
2018-01-10T14:23:03.772Z,21.30
2018-01-10T14:25:30.575Z,22.35
2018-01-10T14:27:57.365Z,20.73
2018-01-10T14:30:24.294Z,20.00
2018-01-10T14:32:50.753Z,23.33
2018-01-10T14:35:17.774Z,21.23
2018-01-10T14:37:44.854Z,22.33
2018-01-10T14:40:13.317Z,20.52
2018-01-10T14:42:40.957Z,23.05
2018-01-10T14:45:07.943Z,19.60
2018-01-10T14:47:35.941Z,22.87
2018-01-10T14:50:02.928Z,24.73
2018-01-10T14:52:29.190Z,18.83
2018-01-10T14:54:56.325Z,26.08
2018-01-10T14:57:23.282Z,21.90
2018-01-10T14:59:49.653Z,20.37
2018-01-10T15:02:16.137Z,20.98
2018-01-10T15:04:43.607Z,19.85
2018-01-10T15:07:11.163Z,24.08
2018-01-10T15:09:38.515Z,22.98
2018-01-10T15:12:06.235Z,23.58
2018-01-10T15:14:32.457Z,25.12
2018-01-10T15:16:59.739Z,24.10
2018-01-10T15:19:27.562Z,26.45
2018-01-10T15:21:54.067Z,23.38
2018-01-10T15:24:21.421Z,24.95
2018-01-10T15:26:48.784Z,27.55
2018-01-10T15:29:16.691Z,21.70
2018-01-10T15:34:18.022Z,22.52
2018-01-10T15:36:44.879Z,23.10
2018-01-10T15:39:11.419Z,19.67
2018-01-10T15:41:39.064Z,19.52
2018-01-10T15:44:05.619Z,21.50
2018-01-10T15:46:31.858Z,19.70
2018-01-10T15:48:58.154Z,20.75
2018-01-10T15:51:24.946Z,19.67
2018-01-10T15:53:52.138Z,21.30
2018-01-10T15:56:19.582Z,17.95
2018-01-10T15:58:46.051Z,23.50
2018-01-10T16:01:12.911Z,17.62
2018-01-10T16:03:39.913Z,25.10
2018-01-10T16:06:06.163Z,21.65
2018-01-10T16:08:32.950Z,19.20
2018-01-10T16:11:01.683Z,23.70
2018-01-10T16:13:27.993Z,19.02
2018-01-10T16:15:54.742Z,20.42
2018-01-10T16:18:21.173Z,24.33
2018-01-10T16:20:48.135Z,23.27
2018-01-10T16:23:14.437Z,21.65
2018-01-10T16:25:41.079Z,20.55
2018-01-10T16:28:08.869Z,16.15
2018-01-10T16:30:35.942Z,17.35
2018-01-10T16:33:02.358Z,16.27
2018-01-10T16:35:29.464Z,17.70
2018-01-10T16:37:55.855Z,17.55
2018-01-10T16:40:22.957Z,20.73
2018-01-10T16:42:49.206Z,18.50
2018-01-10T16:45:16.027Z,21.23
2018-01-10T16:47:42.397Z,20.50
2018-01-10T16:50:08.983Z,20.55
2018-01-10T16:52:35.241Z,17.73
2018-01-10T16:55:01.454Z,19.08
2018-01-10T16:57:27.844Z,25.02
2018-01-10T16:59:55.387Z,24.50
2018-01-10T17:02:22.812Z,24.77
2018-01-10T17:04:50.392Z,22.80
2018-01-10T17:07:16.814Z,22.65
2018-01-10T17:09:43.842Z,24.75
2018-01-10T17:12:10.299Z,22.92
2018-01-10T17:14:37.362Z,21.90
2018-01-10T17:17:03.881Z,19.95
2018-01-10T17:19:31.211Z,18.67
2018-01-10T17:21:57.539Z,21.73
2018-01-10T17:24:24.453Z,23.67
2018-01-10T17:26:50.764Z,24.12
2018-01-10T17:29:17.503Z,24.02
2018-01-10T17:31:44.510Z,19.35
2018-01-10T17:34:11.754Z,24.52
2018-01-10T17:36:38.477Z,24.37
2018-01-10T17:39:05.583Z,24.15
2018-01-10T17:41:33.350Z,17.70
2018-01-10T17:43:59.577Z,22.95
2018-01-10T17:46:26.072Z,21.20
2018-01-10T17:48:53.797Z,20.37
2018-01-10T17:51:20.832Z,17.62
2018-01-10T17:53:48.358Z,19.65
2018-01-10T17:56:15.124Z,17.15
2018-01-10T17:58:42.043Z,22.40
2018-01-10T18:01:10.088Z,18.60
2018-01-10T18:03:36.693Z,19.90
2018-01-10T18:06:04.417Z,21.23
2018-01-10T18:08:31.242Z,21.25
2018-01-10T18:10:58.835Z,18.60
2018-01-10T18:13:25.889Z,18.20
2018-01-10T18:15:53.211Z,20.48
2018-01-10T18:18:19.790Z,17.52
2018-01-10T18:20:47.336Z,19.52
2018-01-10T18:23:14.671Z,20.10
2018-01-10T18:25:41.210Z,22.33
2018-01-10T18:28:08.200Z,24.15
2018-01-10T18:30:35.058Z,22.90
2018-01-10T18:33:02.491Z,22.20
2018-01-10T18:35:29.576Z,17.20
2018-01-10T18:37:56.517Z,21.52
2018-01-10T18:40:22.714Z,17.70
2018-01-10T18:45:22.287Z,17.75
2018-01-10T18:47:49.333Z,18.08
2018-01-10T18:50:16.722Z,19.33
2018-01-10T18:52:43.906Z,18.25
2018-01-10T18:55:10.311Z,18.50
2018-01-10T18:57:38.420Z,19.10
2018-01-10T19:00:04.822Z,17.67
2018-01-10T19:02:31.496Z,24.45
2018-01-10T19:04:58.640Z,22.75
2018-01-10T19:07:24.905Z,17.83
2018-01-10T19:09:51.229Z,16.45
2018-01-10T19:12:17.509Z,20.27
2018-01-10T19:14:44.231Z,20.30
2018-01-10T19:17:11.884Z,16.60
2018-01-10T19:19:39.601Z,21.08
2018-01-10T19:22:06.673Z,24.10
2018-01-10T19:24:33.215Z,24.52
2018-01-10T19:27:00.258Z,24.08
2018-01-10T19:29:27.688Z,27.23
2018-01-10T19:31:54.944Z,22.23
2018-01-10T19:34:21.349Z,24.12
2018-01-10T19:36:48.223Z,20.45
2018-01-10T19:39:14.607Z,26.00
2018-01-10T19:41:41.507Z,22.27
2018-01-10T19:44:07.794Z,23.60
2018-01-10T19:46:34.158Z,23.90
2018-01-10T19:49:00.544Z,20.60
2018-01-10T19:51:27.376Z,20.50
2018-01-10T19:53:54.819Z,22.25
2018-01-10T19:56:22.139Z,20.80
2018-01-10T19:58:48.462Z,19.17
2018-01-10T20:01:15.343Z,22.08
2018-01-10T20:03:43.935Z,24.02
2018-01-10T20:06:11.018Z,19.85
2018-01-10T20:08:37.867Z,18.25
2018-01-10T20:11:04.189Z,16.60
2018-01-10T20:13:30.911Z,22.15
2018-01-10T20:15:57.252Z,20.35
2018-01-10T20:18:24.239Z,17.80
2018-01-10T20:20:50.822Z,18.73
2018-01-10T20:23:17.202Z,23.95
2018-01-10T20:25:43.592Z,22.42
2018-01-10T20:28:09.901Z,19.20
2018-01-10T20:30:37.022Z,20.48
2018-01-10T20:33:03.407Z,19.12
2018-01-10T20:35:29.800Z,16.65
2018-01-10T20:37:57.905Z,18.67
2018-01-10T20:40:25.284Z,17.37
2018-01-10T20:42:52.574Z,15.30
2018-01-10T20:45:19.604Z,14.82
2018-01-10T20:47:46.861Z,16.23
2018-01-10T20:50:13.778Z,13.93
2018-01-10T20:52:40.929Z,16.75
2018-01-10T20:55:10.120Z,14.20
2018-01-10T20:57:36.408Z,12.68
2018-01-10T21:00:05.153Z,13.18
2018-01-10T21:02:33.152Z,13.02
2018-01-10T21:04:59.559Z,11.88
2018-01-10T21:07:25.832Z,14.35
2018-01-10T21:09:53.395Z,11.68
2018-01-10T21:12:20.242Z,15.10
2018-01-10T21:14:46.880Z,11.98
2018-01-10T21:17:14.087Z,14.35
2018-01-10T21:19:40.487Z,9.68
2018-01-10T21:22:07.525Z,12.95
2018-01-10T21:24:33.984Z,13.95
2018-01-10T21:27:00.340Z,14.45
2018-01-10T21:29:26.840Z,16.00
2018-01-10T21:31:54.297Z,15.43
2018-01-10T21:34:20.541Z,16.92
2018-01-10T21:36:46.999Z,16.60
2018-01-10T21:39:15.126Z,14.05
2018-01-10T21:41:41.591Z,14.48
2018-01-10T21:44:08.505Z,14.30
2018-01-10T21:46:35.763Z,15.85
2018-01-10T21:49:02.010Z,12.90
2018-01-10T21:51:29.069Z,15.32
2018-01-10T21:53:56.057Z,17.05
2018-01-10T21:56:22.581Z,17.75
2018-01-10T21:58:49.478Z,17.80
2018-01-10T22:01:16.268Z,17.00
2018-01-10T22:03:46.793Z,16.25
2018-01-10T22:06:13.409Z,15.98
2018-01-10T22:08:40.390Z,17.15
2018-01-10T22:11:07.285Z,16.52
2018-01-10T22:13:33.943Z,15.05
2018-01-10T22:16:01.322Z,15.43
2018-01-10T22:18:27.860Z,14.05
2018-01-10T22:20:54.183Z,16.73
2018-01-10T22:23:20.671Z,14.75
2018-01-10T22:25:47.562Z,16.40
2018-01-10T22:28:14.046Z,17.40
2018-01-10T22:30:40.501Z,17.25
2018-01-10T22:33:07.666Z,15.65
2018-01-10T22:35:35.596Z,18.10
2018-01-10T22:38:03.565Z,16.70
2018-01-10T22:40:30.159Z,16.98
2018-01-10T22:42:57.234Z,17.30
2018-01-10T22:45:23.556Z,15.88
2018-01-10T22:47:50.043Z,16.30
2018-01-10T22:50:17.682Z,15.50
2018-01-10T22:52:44.195Z,17.92
2018-01-10T22:55:11.248Z,16.33
2018-01-10T22:57:37.517Z,15.70
2018-01-10T23:00:05.066Z,16.33
2018-01-10T23:02:32.541Z,15.80
2018-01-10T23:04:59.584Z,14.45
2018-01-10T23:07:27.200Z,14.85
2018-01-10T23:09:54.701Z,15.68
2018-01-10T23:12:21.666Z,17.70
2018-01-10T23:14:48.395Z,15.88
2018-01-10T23:17:15.197Z,14.90
2018-01-10T23:19:41.938Z,15.20
2018-01-10T23:22:08.167Z,14.87
2018-01-10T23:24:34.397Z,13.77
2018-01-10T23:27:01.178Z,15.07
2018-01-10T23:29:27.411Z,12.98
2018-01-10T23:31:53.845Z,16.50
2018-01-10T23:34:21.743Z,13.80
2018-01-10T23:36:49.326Z,15.00
2018-01-10T23:39:15.823Z,13.77
2018-01-10T23:41:42.630Z,13.93
2018-01-10T23:44:08.854Z,13.43
2018-01-10T23:46:36.301Z,13.93
2018-01-10T23:49:03.258Z,14.65
2018-01-10T23:51:29.984Z,13.18
2018-01-10T23:53:57.537Z,15.07
2018-01-10T23:56:24.481Z,13.57
2018-01-10T23:58:51.859Z,15.35
